createdAt,value
2018-01-02T00:00:15.882Z,98.10
2018-01-02T00:00:47.473Z,98.10
2018-01-02T00:01:19.033Z,98.30
2018-01-02T00:01:50.597Z,98.30
2018-01-02T00:02:22.153Z,98.40
2018-01-02T00:02:53.740Z,98.40
2018-01-02T00:03:25.291Z,98.60
2018-01-02T00:03:56.867Z,98.50
2018-01-02T00:04:28.424Z,98.70
2018-01-02T00:04:59.980Z,98.60
2018-01-02T00:05:31.509Z,98.80
2018-01-02T00:06:03.057Z,98.80
2018-01-02T00:06:34.625Z,98.70
2018-01-02T00:07:06.167Z,98.50
2018-01-02T00:07:37.744Z,98.50
2018-01-02T00:08:09.295Z,98.60
2018-01-02T00:08:40.841Z,98.30
2018-01-02T00:09:12.377Z,98.20
2018-01-02T00:09:43.927Z,98.10
2018-01-02T00:10:15.505Z,97.90
2018-01-02T00:10:47.048Z,97.80
2018-01-02T00:11:18.605Z,97.60
2018-01-02T00:11:50.163Z,97.40
2018-01-02T00:12:21.717Z,97.20
2018-01-02T00:12:53.259Z,97.10
2018-01-02T00:13:24.809Z,97.10
2018-01-02T00:13:56.364Z,97.00
2018-01-02T00:14:27.902Z,96.80
2018-01-02T00:14:59.457Z,96.80
2018-01-02T00:15:31.017Z,96.60
2018-01-02T00:16:02.561Z,96.60
2018-01-02T00:16:34.105Z,96.60
2018-01-02T00:17:05.631Z,96.50
2018-01-02T00:17:37.171Z,96.50
2018-01-02T00:18:08.720Z,96.50
2018-01-02T00:18:40.267Z,96.50
2018-01-02T00:19:11.808Z,96.50
2018-01-02T00:19:43.395Z,96.50
2018-01-02T00:20:14.931Z,96.50
2018-01-02T00:20:46.489Z,96.50
2018-01-02T00:21:18.035Z,96.50
2018-01-02T00:21:49.594Z,96.40
2018-01-02T00:22:21.147Z,96.40
2018-01-02T00:22:52.707Z,96.40
2018-01-02T00:23:24.242Z,96.40
2018-01-02T00:23:55.780Z,96.40
2018-01-02T00:24:27.321Z,96.40
2018-01-02T00:24:58.884Z,96.40
2018-01-02T00:25:30.454Z,96.50
2018-01-02T00:26:02.045Z,96.60
2018-01-02T00:26:33.603Z,96.70
2018-01-02T00:27:05.144Z,96.70
2018-01-02T00:27:36.693Z,96.80
2018-01-02T00:28:08.228Z,97.00
2018-01-02T00:28:39.773Z,97.10
2018-01-02T00:29:11.314Z,97.20
2018-01-02T00:29:42.872Z,97.30
2018-01-02T00:30:14.431Z,97.20
2018-01-02T00:30:45.969Z,97.30
2018-01-02T00:31:17.537Z,97.30
2018-01-02T00:31:49.088Z,97.30
2018-01-02T00:32:20.681Z,97.30
2018-01-02T00:32:52.233Z,97.30
2018-01-02T00:33:23.777Z,97.40
2018-01-02T00:33:55.329Z,97.40
2018-01-02T00:34:26.926Z,97.30
2018-01-02T00:34:58.464Z,97.50
2018-01-02T00:35:30.041Z,97.50
2018-01-02T00:36:01.577Z,97.50
2018-01-02T00:36:33.164Z,97.40
2018-01-02T00:37:04.707Z,97.40
2018-01-02T00:37:36.248Z,97.50
2018-01-02T00:38:07.774Z,97.30
2018-01-02T00:38:39.321Z,97.30
2018-01-02T00:39:10.866Z,97.30
2018-01-02T00:39:42.421Z,97.30
2018-01-02T00:40:13.982Z,97.30
2018-01-02T00:40:45.536Z,97.30
2018-01-02T00:41:17.090Z,97.30
2018-01-02T00:41:48.649Z,97.20
2018-01-02T00:42:20.193Z,97.30
2018-01-02T00:42:51.724Z,97.30
2018-01-02T00:43:23.264Z,97.30
2018-01-02T00:43:54.802Z,97.10
2018-01-02T00:44:26.346Z,97.20
2018-01-02T00:44:57.884Z,97.30
2018-01-02T00:45:29.442Z,97.30
2018-01-02T00:46:00.997Z,97.20
2018-01-02T00:46:32.558Z,97.20
2018-01-02T00:47:04.116Z,97.20
2018-01-02T00:47:35.672Z,97.10
2018-01-02T00:48:07.233Z,97.10
2018-01-02T00:48:38.784Z,97.10
2018-01-02T00:49:10.332Z,97.20
2018-01-02T00:49:41.873Z,97.30
2018-01-02T00:50:13.413Z,97.40
2018-01-02T00:50:44.981Z,97.50
2018-01-02T00:51:16.544Z,97.70
2018-01-02T00:51:48.096Z,97.80
2018-01-02T00:52:19.631Z,98.00
2018-01-02T00:52:51.168Z,98.10
2018-01-02T00:53:22.730Z,98.40
2018-01-02T00:53:54.283Z,98.60
2018-01-02T00:54:25.850Z,98.70
2018-01-02T00:54:57.419Z,98.80
2018-01-02T00:55:28.962Z,98.90
2018-01-02T00:56:00.536Z,98.90
2018-01-02T00:56:32.080Z,99.10
2018-01-02T00:57:03.643Z,99.20
2018-01-02T00:57:35.256Z,99.20
2018-01-02T00:58:06.802Z,99.20
2018-01-02T00:58:38.356Z,99.20
2018-01-02T00:59:09.923Z,99.10
2018-01-02T00:59:41.488Z,99.00
2018-01-02T01:00:13.047Z,99.00
2018-01-02T01:00:44.633Z,98.80
2018-01-02T01:01:16.203Z,98.60
2018-01-02T01:01:47.765Z,98.60
2018-01-02T01:02:19.308Z,98.50
2018-01-02T01:02:50.860Z,98.40
2018-01-02T01:03:22.428Z,98.20
2018-01-02T01:03:54.306Z,98.20
2018-01-02T01:04:25.858Z,97.90
2018-01-02T01:04:57.416Z,97.90
2018-01-02T01:05:29.000Z,97.90
2018-01-02T01:06:00.552Z,97.80
2018-01-02T01:06:32.109Z,97.70
2018-01-02T01:07:03.679Z,97.70
2018-01-02T01:07:35.235Z,97.50
2018-01-02T01:08:06.784Z,97.50
2018-01-02T01:08:38.333Z,97.40
2018-01-02T01:09:09.894Z,97.50
2018-01-02T01:09:41.436Z,97.50
2018-01-02T01:10:12.998Z,97.50
2018-01-02T01:10:44.563Z,97.50
2018-01-02T01:11:16.133Z,97.50
2018-01-02T01:11:47.715Z,97.50
2018-01-02T01:12:19.273Z,97.60
2018-01-02T01:12:50.830Z,97.50
2018-01-02T01:13:22.396Z,97.50
2018-01-02T01:13:53.962Z,97.40
2018-01-02T01:14:25.524Z,97.50
2018-01-02T01:14:57.087Z,97.40
2018-01-02T01:15:28.656Z,97.50
2018-01-02T01:16:00.216Z,97.60
2018-01-02T01:16:31.789Z,97.70
2018-01-02T01:17:03.346Z,97.50
2018-01-02T01:17:34.892Z,97.50
2018-01-02T01:18:06.467Z,97.50
2018-01-02T01:18:38.023Z,97.50
2018-01-02T01:19:09.592Z,97.50
2018-01-02T01:19:41.149Z,97.60
2018-01-02T01:20:12.718Z,97.60
2018-01-02T01:20:44.267Z,97.60
2018-01-02T01:21:15.825Z,97.60
2018-01-02T01:21:47.412Z,97.60
2018-01-02T01:22:18.966Z,97.60
2018-01-02T01:22:50.509Z,97.70
2018-01-02T01:23:22.084Z,97.70
2018-01-02T01:23:53.642Z,97.80
2018-01-02T01:24:25.257Z,97.70
2018-01-02T01:24:56.826Z,97.80
2018-01-02T01:25:28.374Z,97.70
2018-01-02T01:25:59.926Z,97.80
2018-01-02T01:26:31.472Z,97.70
2018-01-02T01:27:03.047Z,97.70
2018-01-02T01:27:34.583Z,97.70
2018-01-02T01:28:06.159Z,97.60
2018-01-02T01:28:37.713Z,97.60
2018-01-02T01:29:09.277Z,97.60
2018-01-02T01:29:40.833Z,97.60
2018-01-02T01:30:12.399Z,97.60
2018-01-02T01:30:43.969Z,97.60
2018-01-02T01:31:15.516Z,97.50
2018-01-02T01:31:47.069Z,97.50
2018-01-02T01:32:18.636Z,97.40
2018-01-02T01:32:50.190Z,97.40
2018-01-02T01:33:21.766Z,97.40
2018-01-02T01:33:53.323Z,97.50
2018-01-02T01:34:24.888Z,97.40
2018-01-02T01:34:56.450Z,97.40
2018-01-02T01:35:27.997Z,97.30
2018-01-02T01:35:59.551Z,97.40
2018-01-02T01:36:31.112Z,97.40
2018-01-02T01:37:02.689Z,97.40
2018-01-02T01:37:34.258Z,97.50
2018-01-02T01:38:05.803Z,97.50
2018-01-02T01:38:37.368Z,97.80
2018-01-02T01:39:08.916Z,97.60
2018-01-02T01:39:40.511Z,97.50
2018-01-02T01:40:12.076Z,97.50
2018-01-02T01:40:43.626Z,97.50
2018-01-02T01:41:15.176Z,97.50
2018-01-02T01:41:46.729Z,97.50
2018-01-02T01:42:18.300Z,97.50
2018-01-02T01:42:49.852Z,97.50
2018-01-02T01:43:21.406Z,97.50
2018-01-02T01:43:52.954Z,97.50
2018-01-02T01:44:24.520Z,97.60
2018-01-02T01:44:56.063Z,97.70
2018-01-02T01:45:27.627Z,97.70
2018-01-02T01:45:59.188Z,97.80
2018-01-02T01:46:30.740Z,97.80
2018-01-02T01:47:02.322Z,97.80
2018-01-02T01:47:33.870Z,97.90
2018-01-02T01:48:05.428Z,98.00
2018-01-02T01:48:56.432Z,98.10
2018-01-02T01:49:27.970Z,98.10
2018-01-02T01:49:59.536Z,98.10
2018-01-02T01:50:31.086Z,98.10
2018-01-02T01:51:02.664Z,98.00
2018-01-02T01:51:34.210Z,98.10
2018-01-02T01:52:05.759Z,98.30
2018-01-02T01:52:37.312Z,98.30
2018-01-02T01:53:08.856Z,98.40
2018-01-02T01:53:40.402Z,98.40
2018-01-02T01:54:11.930Z,98.70
2018-01-02T01:54:43.478Z,99.20
2018-01-02T01:55:15.035Z,99.20
2018-01-02T01:55:46.610Z,99.10
2018-01-02T01:56:18.252Z,99.10
2018-01-02T01:56:49.797Z,99.10
2018-01-02T01:57:21.353Z,99.10
2018-01-02T01:57:52.908Z,99.60
2018-01-02T01:58:24.464Z,99.50
2018-01-02T01:58:56.016Z,99.50
2018-01-02T01:59:27.564Z,99.50
2018-01-02T01:59:59.124Z,99.40
2018-01-02T02:00:30.692Z,99.40
2018-01-02T02:01:02.256Z,99.50
2018-01-02T02:01:33.806Z,99.50
2018-01-02T02:02:05.378Z,99.40
2018-01-02T02:02:36.944Z,99.30
2018-01-02T02:03:08.498Z,99.20
2018-01-02T02:03:40.056Z,99.10
2018-01-02T02:04:11.582Z,99.10
2018-01-02T02:04:43.120Z,99.00
2018-01-02T02:05:14.669Z,99.00
2018-01-02T02:05:46.218Z,98.80
2018-01-02T02:06:17.784Z,98.80
2018-01-02T02:06:49.348Z,98.70
2018-01-02T02:07:20.948Z,98.80
2018-01-02T02:07:52.536Z,98.90
2018-01-02T02:08:24.092Z,98.90
2018-01-02T02:08:55.652Z,99.00
2018-01-02T02:09:27.208Z,99.00
2018-01-02T02:09:58.767Z,99.00
2018-01-02T02:10:30.340Z,99.10
2018-01-02T02:11:01.897Z,99.10
2018-01-02T02:11:33.454Z,99.10
2018-01-02T02:12:05.004Z,99.00
2018-01-02T02:12:36.552Z,99.10
2018-01-02T02:13:08.099Z,99.10
2018-01-02T02:13:39.645Z,99.20
2018-01-02T02:14:11.204Z,99.40
2018-01-02T02:14:42.756Z,99.40
2018-01-02T02:15:14.417Z,99.50
2018-01-02T02:15:45.998Z,99.50
2018-01-02T02:16:17.554Z,99.70
2018-01-02T02:16:49.112Z,99.70
2018-01-02T02:17:20.708Z,99.60
2018-01-02T02:17:52.246Z,99.60
2018-01-02T02:18:23.808Z,99.60
2018-01-02T02:18:55.373Z,99.70
2018-01-02T02:19:26.936Z,99.70
2018-01-02T02:19:58.488Z,99.70
2018-01-02T02:20:30.054Z,99.90
2018-01-02T02:21:01.611Z,99.90
2018-01-02T02:21:33.169Z,99.90
2018-01-02T02:22:04.720Z,99.90
2018-01-02T02:22:36.274Z,99.90
2018-01-02T02:23:07.816Z,99.90
2018-01-02T02:23:39.360Z,99.90
2018-01-02T02:24:10.915Z,99.90
2018-01-02T02:24:42.499Z,99.90
2018-01-02T02:25:14.015Z,99.90
2018-01-02T02:25:45.590Z,99.90
2018-01-02T02:26:17.160Z,99.90
2018-01-02T02:26:48.736Z,99.90
2018-01-02T02:27:20.304Z,99.90
2018-01-02T02:27:51.852Z,99.90
2018-01-02T02:28:23.399Z,99.90
2018-01-02T02:28:54.932Z,99.90
2018-01-02T02:29:26.476Z,99.90
2018-01-02T02:29:58.044Z,99.90
2018-01-02T02:30:29.605Z,99.90
2018-01-02T02:31:01.151Z,99.90
2018-01-02T02:31:32.720Z,99.90
2018-01-02T02:32:04.292Z,99.90
2018-01-02T02:32:35.837Z,99.90
2018-01-02T02:33:07.422Z,99.90
2018-01-02T02:33:38.960Z,99.90
2018-01-02T02:34:10.509Z,99.90
2018-01-02T02:34:42.063Z,99.90
2018-01-02T02:35:13.620Z,99.90
2018-01-02T02:35:45.172Z,99.90
2018-01-02T02:36:16.746Z,99.90
2018-01-02T02:36:48.321Z,99.90
2018-01-02T02:37:19.908Z,99.90
2018-01-02T02:37:51.533Z,99.90
2018-01-02T02:38:23.092Z,99.90
2018-01-02T02:38:54.651Z,99.90
2018-01-02T02:39:26.224Z,99.90
2018-01-02T02:39:57.784Z,99.90
2018-01-02T02:40:47.855Z,99.90
2018-01-02T02:41:19.448Z,99.90
2018-01-02T02:41:51.007Z,99.90
2018-01-02T02:42:22.592Z,99.90
2018-01-02T02:42:54.149Z,99.90
2018-01-02T02:43:25.685Z,99.90
2018-01-02T02:43:57.266Z,99.90
2018-01-02T02:44:28.816Z,99.90
2018-01-02T02:45:00.364Z,99.90
2018-01-02T02:45:31.924Z,99.90
2018-01-02T02:46:03.468Z,99.90
2018-01-02T02:46:35.024Z,99.90
2018-01-02T02:47:06.598Z,99.90
2018-01-02T02:47:38.172Z,99.90
2018-01-02T02:48:09.750Z,99.90
2018-01-02T02:48:41.336Z,99.90
2018-01-02T02:49:12.879Z,99.90
2018-01-02T02:49:44.442Z,99.90
2018-01-02T02:50:15.984Z,99.90
2018-01-02T02:50:47.530Z,99.90
2018-01-02T02:51:19.084Z,99.80
2018-01-02T02:51:50.643Z,99.90
2018-01-02T02:52:22.224Z,99.70
2018-01-02T02:52:53.803Z,99.90
2018-01-02T02:53:25.344Z,99.80
2018-01-02T02:53:56.902Z,99.70
2018-01-02T02:54:28.447Z,99.80
2018-01-02T02:55:00.003Z,99.80
2018-01-02T02:55:31.564Z,99.90
2018-01-02T02:56:03.114Z,99.90
2018-01-02T02:56:34.668Z,99.90
2018-01-02T02:57:06.255Z,99.90
2018-01-02T02:57:37.812Z,99.90
2018-01-02T02:58:09.358Z,99.90
2018-01-02T02:58:40.932Z,99.90
2018-01-02T02:59:12.502Z,99.90
2018-01-02T02:59:44.046Z,99.90
2018-01-02T03:00:15.670Z,99.90
2018-01-02T03:00:47.244Z,99.90
2018-01-02T03:01:18.794Z,99.90
2018-01-02T03:01:50.348Z,99.90
2018-01-02T03:02:21.894Z,99.90
2018-01-02T03:02:53.444Z,99.90
2018-01-02T03:03:24.984Z,99.90
2018-01-02T03:03:56.564Z,99.90
2018-01-02T03:04:28.124Z,99.90
2018-01-02T03:04:59.682Z,99.90
2018-01-02T03:05:31.248Z,99.90
2018-01-02T03:06:02.832Z,99.90
2018-01-02T03:06:34.384Z,99.90
2018-01-02T03:07:05.934Z,99.90
2018-01-02T03:07:37.469Z,99.90
2018-01-02T03:08:09.030Z,99.90
2018-01-02T03:08:40.594Z,99.90
2018-01-02T03:09:12.147Z,99.90
2018-01-02T03:09:43.717Z,99.90
2018-01-02T03:10:15.276Z,99.90
2018-01-02T03:10:46.855Z,99.90
2018-01-02T03:11:18.434Z,99.90
2018-01-02T03:11:49.990Z,99.90
2018-01-02T03:12:21.532Z,99.90
2018-01-02T03:12:53.056Z,99.90
2018-01-02T03:13:24.608Z,99.90
2018-01-02T03:13:56.160Z,99.90
2018-01-02T03:14:27.726Z,99.90
2018-01-02T03:14:59.298Z,99.90
2018-01-02T03:15:30.844Z,99.90
2018-01-02T03:16:02.416Z,99.90
2018-01-02T03:16:33.976Z,99.90
2018-01-02T03:17:05.548Z,99.90
2018-01-02T03:17:37.090Z,99.90
2018-01-02T03:18:08.664Z,99.90
2018-01-02T03:18:40.236Z,99.90
2018-01-02T03:19:11.782Z,99.90
2018-01-02T03:19:43.318Z,99.90
2018-01-02T03:20:14.880Z,99.90
2018-01-02T03:20:46.412Z,99.90
2018-01-02T03:21:17.981Z,99.90
2018-01-02T03:21:49.538Z,99.70
2018-01-02T03:22:22.149Z,99.60
2018-01-02T03:22:53.694Z,99.50
2018-01-02T03:23:25.250Z,99.40
2018-01-02T03:23:56.840Z,99.40
2018-01-02T03:24:28.382Z,99.40
2018-01-02T03:24:59.938Z,99.20
2018-01-02T03:25:31.474Z,99.20
2018-01-02T03:26:03.032Z,99.20
2018-01-02T03:26:34.581Z,99.10
2018-01-02T03:27:06.150Z,99.00
2018-01-02T03:27:37.714Z,98.90
2018-01-02T03:28:09.277Z,98.80
2018-01-02T03:28:40.830Z,98.80
2018-01-02T03:29:12.373Z,98.80
2018-01-02T03:29:43.944Z,98.80
2018-01-02T03:30:15.513Z,98.80
2018-01-02T03:30:47.075Z,98.70
2018-01-02T03:31:18.616Z,98.80
2018-01-02T03:31:50.180Z,99.00
2018-01-02T03:32:21.744Z,99.20
2018-01-02T03:32:53.310Z,99.40
2018-01-02T03:33:24.852Z,99.50
2018-01-02T03:33:56.404Z,99.60
2018-01-02T03:34:27.967Z,99.70
2018-01-02T03:34:59.540Z,99.80
2018-01-02T03:35:31.096Z,99.70
2018-01-02T03:36:02.645Z,99.70
2018-01-02T03:36:34.208Z,99.70
2018-01-02T03:37:05.788Z,99.70
2018-01-02T03:37:37.347Z,99.60
2018-01-02T03:38:08.906Z,99.70
2018-01-02T03:38:40.460Z,99.70
2018-01-02T03:39:12.045Z,99.70
2018-01-02T03:39:43.627Z,99.70
2018-01-02T03:40:15.168Z,99.80
2018-01-02T03:40:46.714Z,99.90
2018-01-02T03:41:18.266Z,99.90
2018-01-02T03:41:49.815Z,99.90
2018-01-02T03:42:21.408Z,99.90
2018-01-02T03:42:52.968Z,99.90
2018-01-02T03:43:24.528Z,99.90
2018-01-02T03:43:56.098Z,99.90
2018-01-02T03:44:27.656Z,99.90
2018-01-02T03:44:59.212Z,99.90
2018-01-02T03:45:30.781Z,99.90
2018-01-02T03:46:02.356Z,99.90
2018-01-02T03:46:33.932Z,99.90
2018-01-02T03:47:05.498Z,99.90
2018-01-02T03:47:37.066Z,99.90
2018-01-02T03:48:08.609Z,99.90
2018-01-02T03:48:40.181Z,99.90
2018-01-02T03:49:11.726Z,99.90
2018-01-02T03:49:43.266Z,99.90
2018-01-02T03:50:14.832Z,99.90
2018-01-02T03:50:46.392Z,99.90
2018-01-02T03:51:17.944Z,99.90
2018-01-02T03:51:49.500Z,99.90
2018-01-02T03:52:21.067Z,99.90
2018-01-02T03:52:52.612Z,99.90
2018-01-02T03:53:24.160Z,99.90
2018-01-02T03:53:55.703Z,99.90
2018-01-02T03:54:27.270Z,99.90
2018-01-02T03:54:58.808Z,99.90
2018-01-02T03:55:30.338Z,99.90
2018-01-02T03:56:01.876Z,99.90
2018-01-02T03:56:33.406Z,99.50
2018-01-02T03:57:04.956Z,99.80
2018-01-02T03:57:36.512Z,99.80
2018-01-02T03:58:08.046Z,99.70
2018-01-02T03:58:39.580Z,99.60
2018-01-02T03:59:11.113Z,99.40
2018-01-02T03:59:42.652Z,99.10
2018-01-02T04:00:14.206Z,98.60
2018-01-02T04:00:45.757Z,98.30
2018-01-02T04:01:17.332Z,97.80
2018-01-02T04:01:48.894Z,97.40
2018-01-02T04:02:20.444Z,97.50
2018-01-02T04:02:51.969Z,95.50
2018-01-02T04:03:23.524Z,95.60
2018-01-02T04:03:55.067Z,95.80
2018-01-02T04:04:26.628Z,95.60
2018-01-02T04:04:58.160Z,96.10
2018-01-02T04:05:29.720Z,97.10
2018-01-02T04:06:01.286Z,96.50
2018-01-02T04:06:32.845Z,96.20
2018-01-02T04:07:04.402Z,95.70
2018-01-02T04:07:35.956Z,94.60
2018-01-02T04:08:07.552Z,95.40
2018-01-02T04:08:39.098Z,93.30
2018-01-02T04:09:10.664Z,93.90
2018-01-02T04:09:42.192Z,94.40
2018-01-02T04:10:13.780Z,92.40
2018-01-02T04:10:45.316Z,91.90
2018-01-02T04:11:16.857Z,93.00
2018-01-02T04:11:48.402Z,92.90
2018-01-02T04:12:19.946Z,93.50
2018-01-02T04:12:51.493Z,93.10
2018-01-02T04:13:23.024Z,92.50
2018-01-02T04:13:54.588Z,92.80
2018-01-02T04:14:26.158Z,94.70
2018-01-02T04:14:57.698Z,93.80
2018-01-02T04:15:29.248Z,92.00
2018-01-02T04:16:00.796Z,92.40
2018-01-02T04:16:32.336Z,92.40
2018-01-02T04:17:03.897Z,92.60
2018-01-02T04:17:35.436Z,94.80
2018-01-02T04:18:06.980Z,94.30
2018-01-02T04:18:38.516Z,94.60
2018-01-02T04:19:10.104Z,93.50
2018-01-02T04:19:41.666Z,93.20
2018-01-02T04:20:13.194Z,93.50
2018-01-02T04:20:44.736Z,92.90
2018-01-02T04:21:16.318Z,93.50
2018-01-02T04:21:47.867Z,93.30
2018-01-02T04:22:19.412Z,94.40
2018-01-02T04:22:50.988Z,94.10
2018-01-02T04:23:22.532Z,94.80
2018-01-02T04:23:54.156Z,94.90
2018-01-02T04:24:25.698Z,94.90
2018-01-02T04:24:57.248Z,94.80
2018-01-02T04:25:28.787Z,94.70
2018-01-02T04:26:00.324Z,94.10
2018-01-02T04:26:31.884Z,94.40
2018-01-02T04:27:03.412Z,94.30
2018-01-02T04:27:34.961Z,94.50
2018-01-02T04:28:06.502Z,95.00
2018-01-02T04:28:38.036Z,94.70
2018-01-02T04:29:09.574Z,95.20
2018-01-02T04:29:41.120Z,95.40
2018-01-02T04:30:12.668Z,95.60
2018-01-02T04:30:44.216Z,95.80
2018-01-02T04:31:15.760Z,95.50
2018-01-02T04:31:47.300Z,96.00
2018-01-02T04:32:18.871Z,96.20
2018-01-02T04:32:50.408Z,96.30
2018-01-02T04:33:21.954Z,96.00
2018-01-02T04:33:53.496Z,95.20
2018-01-02T04:34:25.118Z,95.50
2018-01-02T04:34:56.661Z,95.60
2018-01-02T04:35:28.216Z,95.60
2018-01-02T04:35:59.752Z,95.60
2018-01-02T04:36:31.315Z,95.60
2018-01-02T04:37:02.852Z,95.80
2018-01-02T04:37:34.406Z,96.00
2018-01-02T04:38:05.952Z,95.80
2018-01-02T04:38:37.488Z,95.80
2018-01-02T04:39:09.026Z,95.60
2018-01-02T04:39:40.560Z,95.10
2018-01-02T04:40:12.091Z,95.30
2018-01-02T04:40:43.625Z,95.80
2018-01-02T04:41:15.173Z,94.90
2018-01-02T04:41:46.703Z,94.10
2018-01-02T04:42:18.252Z,93.50
2018-01-02T04:42:49.792Z,94.10
2018-01-02T04:43:21.390Z,93.50
2018-01-02T04:43:52.898Z,93.20
2018-01-02T04:44:24.435Z,93.90
2018-01-02T04:44:55.988Z,94.10
2018-01-02T04:45:27.552Z,93.10
2018-01-02T04:45:59.100Z,93.10
2018-01-02T04:46:30.637Z,92.50
2018-01-02T04:47:02.184Z,91.90
2018-01-02T04:47:33.724Z,91.60
2018-01-02T04:48:05.281Z,92.60
2018-01-02T04:48:36.836Z,91.90
2018-01-02T04:49:08.390Z,92.50
2018-01-02T04:49:39.922Z,92.30
2018-01-02T04:50:11.470Z,92.60
2018-01-02T04:50:43.040Z,92.60
2018-01-02T04:51:14.580Z,93.00
2018-01-02T04:51:46.148Z,93.20
2018-01-02T04:52:17.677Z,93.30
2018-01-02T04:52:49.205Z,93.00
2018-01-02T04:53:20.745Z,92.60
2018-01-02T04:53:52.302Z,92.50
2018-01-02T04:54:23.856Z,93.10
2018-01-02T04:54:55.426Z,94.10
2018-01-02T04:55:26.994Z,94.20
2018-01-02T04:55:58.562Z,94.00
2018-01-02T04:56:30.114Z,93.80
2018-01-02T04:57:01.665Z,93.00
2018-01-02T04:57:33.218Z,95.10
2018-01-02T04:58:04.754Z,95.50
2018-01-02T04:58:36.312Z,94.80
2018-01-02T04:59:07.896Z,93.50
2018-01-02T04:59:39.443Z,94.70
2018-01-02T05:00:11.008Z,95.20
2018-01-02T05:00:42.576Z,93.90
2018-01-02T05:01:14.116Z,92.60
2018-01-02T05:01:45.696Z,93.30
2018-01-02T05:02:17.260Z,93.50
2018-01-02T05:02:48.812Z,92.70
2018-01-02T05:03:20.374Z,92.80
2018-01-02T05:03:51.934Z,92.90
2018-01-02T05:04:23.482Z,93.10
2018-01-02T05:04:55.018Z,93.70
2018-01-02T05:05:26.572Z,93.40
2018-01-02T05:05:58.128Z,94.20
2018-01-02T05:06:29.736Z,92.70
2018-01-02T05:07:01.301Z,92.60
2018-01-02T05:07:32.854Z,92.20
2018-01-02T05:08:04.406Z,92.20
2018-01-02T05:08:35.964Z,91.30
2018-01-02T05:09:07.534Z,91.90
2018-01-02T05:09:39.094Z,92.20
2018-01-02T05:10:10.682Z,91.40
2018-01-02T05:10:42.229Z,92.20
2018-01-02T05:11:13.766Z,92.60
2018-01-02T05:11:45.324Z,93.50
2018-01-02T05:12:16.870Z,93.20
2018-01-02T05:12:48.408Z,93.30
2018-01-02T05:13:19.946Z,99.90
2018-01-02T05:13:51.488Z,99.90
2018-01-02T05:14:23.036Z,99.90
2018-01-02T05:14:54.562Z,99.90
2018-01-02T05:15:26.102Z,99.90
2018-01-02T05:15:57.652Z,99.90
2018-01-02T05:16:29.207Z,99.90
2018-01-02T05:17:00.740Z,99.90
2018-01-02T05:17:32.288Z,99.90
2018-01-02T05:18:03.839Z,99.90
2018-01-02T05:18:35.390Z,99.90
2018-01-02T05:19:06.934Z,99.90
2018-01-02T05:19:38.495Z,99.90
2018-01-02T05:20:10.064Z,99.90
2018-01-02T05:20:41.608Z,99.90
2018-01-02T05:21:13.176Z,99.90
2018-01-02T05:21:44.744Z,99.90
2018-01-02T05:22:16.300Z,99.90
2018-01-02T05:22:47.834Z,99.90
2018-01-02T05:23:19.388Z,99.90
2018-01-02T05:23:50.946Z,99.90
2018-01-02T05:24:22.496Z,99.90
2018-01-02T05:24:54.094Z,99.90
2018-01-02T05:25:25.645Z,99.90
2018-01-02T05:25:57.184Z,99.90
2018-01-02T05:26:28.734Z,99.90
2018-01-02T05:27:00.288Z,99.90
2018-01-02T05:27:31.843Z,99.90
2018-01-02T05:28:03.407Z,99.90
2018-01-02T05:28:35.011Z,99.90
2018-01-02T05:29:06.586Z,99.90
2018-01-02T05:29:38.116Z,99.90
2018-01-02T05:30:09.678Z,99.90
2018-01-02T05:30:41.228Z,99.90
2018-01-02T05:31:12.781Z,99.90
2018-01-02T05:31:44.334Z,99.90
2018-01-02T05:32:15.896Z,99.90
2018-01-02T05:32:47.443Z,99.90
2018-01-02T05:33:18.992Z,99.90
2018-01-02T05:33:50.552Z,99.90
2018-01-02T05:34:22.099Z,99.90
2018-01-02T05:34:53.698Z,99.90
2018-01-02T05:35:25.274Z,99.90
2018-01-02T05:35:56.868Z,99.90
2018-01-02T05:36:28.416Z,99.90
2018-01-02T05:36:59.969Z,99.90
2018-01-02T05:37:31.532Z,99.90
2018-01-02T05:38:03.088Z,99.90
2018-01-02T05:38:34.646Z,99.90
2018-01-02T05:39:06.190Z,99.90
2018-01-02T05:39:37.791Z,99.90
2018-01-02T05:40:09.324Z,99.90
2018-01-02T05:40:40.882Z,99.90
2018-01-02T05:41:12.438Z,99.90
2018-01-02T05:41:43.990Z,99.90
2018-01-02T05:42:15.542Z,99.90
2018-01-02T05:42:47.100Z,99.90
2018-01-02T05:43:18.669Z,99.90
2018-01-02T05:43:50.220Z,99.90
2018-01-02T05:44:22.129Z,99.90
2018-01-02T05:44:53.688Z,99.90
2018-01-02T05:45:25.252Z,99.90
2018-01-02T05:45:56.808Z,99.90
2018-01-02T05:46:28.359Z,99.90
2018-01-02T05:46:59.915Z,99.90
2018-01-02T05:47:31.468Z,99.90
2018-01-02T05:48:03.036Z,99.90
2018-01-02T05:48:34.596Z,99.90
2018-01-02T05:49:06.147Z,99.90
2018-01-02T05:49:37.704Z,99.90
2018-01-02T05:50:09.248Z,99.90
2018-01-02T05:50:40.820Z,99.90
2018-01-02T05:51:12.370Z,99.90
2018-01-02T05:51:43.950Z,99.90
2018-01-02T05:52:15.519Z,99.90
2018-01-02T05:52:47.059Z,99.90
2018-01-02T05:53:18.602Z,99.90
2018-01-02T05:53:50.132Z,99.90
2018-01-02T05:54:21.678Z,99.90
2018-01-02T05:54:53.269Z,99.90
2018-01-02T05:55:24.839Z,99.90
2018-01-02T05:55:56.716Z,99.90
2018-01-02T05:56:28.256Z,99.90
2018-01-02T05:56:59.834Z,99.90
2018-01-02T05:57:31.376Z,99.90
2018-01-02T05:58:02.948Z,99.90
2018-01-02T05:58:34.508Z,99.90
2018-01-02T05:59:06.060Z,99.90
2018-01-02T05:59:37.613Z,99.90
2018-01-02T06:00:09.192Z,99.90
2018-01-02T06:00:40.739Z,99.90
2018-01-02T06:01:12.280Z,99.90
2018-01-02T06:01:43.836Z,99.90
2018-01-02T06:02:15.378Z,99.90
2018-01-02T06:02:46.944Z,99.90
2018-01-02T06:03:18.485Z,99.90
2018-01-02T06:03:50.048Z,99.90
2018-01-02T06:04:21.601Z,99.90
2018-01-02T06:04:53.156Z,99.90
2018-01-02T06:05:24.718Z,99.90
2018-01-02T06:05:56.270Z,99.90
2018-01-02T06:06:27.815Z,99.90
2018-01-02T06:06:59.386Z,99.90
2018-01-02T06:07:30.960Z,99.90
2018-01-02T06:08:02.529Z,99.90
2018-01-02T06:08:34.091Z,99.90
2018-01-02T06:09:05.641Z,99.90
2018-01-02T06:09:37.220Z,99.90
2018-01-02T06:10:08.762Z,99.90
2018-01-02T06:10:40.336Z,99.90
2018-01-02T06:11:11.884Z,99.90
2018-01-02T06:11:44.388Z,99.90
2018-01-02T06:12:15.952Z,99.90
2018-01-02T06:12:47.524Z,99.90
2018-01-02T06:13:19.072Z,99.90
2018-01-02T06:13:50.631Z,99.90
2018-01-02T06:14:22.188Z,99.90
2018-01-02T06:14:53.718Z,99.90
2018-01-02T06:15:25.249Z,99.90
2018-01-02T06:15:56.792Z,99.90
2018-01-02T06:16:28.360Z,99.90
2018-01-02T06:16:59.923Z,99.90
2018-01-02T06:17:31.471Z,99.90
2018-01-02T06:18:03.038Z,99.90
2018-01-02T06:18:34.601Z,99.90
2018-01-02T06:19:06.152Z,99.90
2018-01-02T06:19:37.731Z,99.90
2018-01-02T06:20:09.296Z,99.90
2018-01-02T06:20:40.836Z,99.90
2018-01-02T06:21:12.393Z,99.90
2018-01-02T06:21:43.966Z,99.90
2018-01-02T06:22:15.520Z,99.90
2018-01-02T06:22:47.064Z,99.90
2018-01-02T06:23:18.643Z,99.90
2018-01-02T06:23:50.179Z,99.90
2018-01-02T06:24:21.745Z,99.90
2018-01-02T06:24:53.300Z,99.90
2018-01-02T06:25:24.854Z,99.90
2018-01-02T06:25:56.994Z,99.90
2018-01-02T06:26:28.536Z,99.90
2018-01-02T06:27:00.116Z,99.90
2018-01-02T06:27:31.663Z,99.90
2018-01-02T06:28:03.202Z,99.90
2018-01-02T06:28:34.779Z,99.90
2018-01-02T06:29:06.332Z,99.90
2018-01-02T06:29:37.879Z,99.90
2018-01-02T06:30:09.433Z,99.90
2018-01-02T06:30:41.002Z,99.90
2018-01-02T06:31:12.555Z,99.90
2018-01-02T06:31:44.111Z,99.90
2018-01-02T06:32:15.664Z,99.90
2018-01-02T06:32:47.234Z,99.90
2018-01-02T06:33:18.804Z,99.90
2018-01-02T06:33:50.359Z,99.90
2018-01-02T06:34:21.931Z,99.90
2018-01-02T06:34:53.504Z,99.90
2018-01-02T06:35:25.102Z,99.90
2018-01-02T06:35:56.686Z,99.90
2018-01-02T06:36:28.236Z,99.90
2018-01-02T06:36:59.831Z,99.90
2018-01-02T06:37:31.378Z,99.90
2018-01-02T06:38:02.952Z,99.90
2018-01-02T06:38:34.501Z,99.90
2018-01-02T06:39:06.056Z,99.90
2018-01-02T06:39:37.609Z,99.90
2018-01-02T06:40:09.168Z,99.90
2018-01-02T06:40:40.723Z,99.90
2018-01-02T06:41:12.281Z,99.90
2018-01-02T06:41:43.825Z,99.90
2018-01-02T06:42:15.366Z,99.90
2018-01-02T06:42:46.954Z,99.90
2018-01-02T06:43:18.521Z,99.90
2018-01-02T06:43:50.076Z,99.90
2018-01-02T06:44:21.655Z,99.90
2018-01-02T06:44:53.205Z,99.90
2018-01-02T06:45:24.769Z,99.90
2018-01-02T06:45:56.362Z,99.90
2018-01-02T06:46:27.916Z,99.90
2018-01-02T06:46:59.480Z,99.90